createdAt,value
2022-08-10T00:01:52.598Z,1.23
2022-08-10T00:04:22.642Z,1.05
2022-08-10T00:06:53.309Z,1.20
2022-08-10T00:09:22.372Z,1.17
2022-08-10T00:11:50.833Z,1.33
2022-08-10T00:14:19.800Z,1.40
2022-08-10T00:16:50.030Z,1.50
2022-08-10T00:19:18.457Z,1.40
2022-08-10T00:21:47.682Z,1.20
2022-08-10T00:24:16.578Z,1.13
2022-08-10T00:27:53.058Z,1.30
2022-08-10T00:29:33.564Z,1.20
2022-08-10T00:32:03.598Z,1.30
2022-08-10T00:34:34.210Z,1.27
2022-08-10T00:37:03.039Z,1.23
2022-08-10T00:39:36.281Z,1.40
2022-08-10T00:42:08.808Z,1.40
2022-08-10T00:44:39.254Z,1.35
2022-08-10T00:47:36.359Z,1.20
2022-08-10T00:49:59.190Z,1.45
2022-08-10T00:52:30.967Z,1.30
2022-08-10T00:55:03.000Z,1.45
2022-08-10T00:57:31.686Z,1.17
2022-08-10T01:00:00.663Z,1.60
2022-08-10T01:02:33.465Z,1.50
2022-08-10T01:05:04.623Z,1.70
2022-08-10T01:07:56.421Z,1.33
2022-08-10T01:10:32.600Z,1.27
2022-08-10T01:13:08.014Z,1.30
2022-08-10T01:15:49.967Z,1.30
2022-08-10T01:18:27.756Z,1.50
2022-08-10T01:21:31.686Z,1.13
2022-08-10T01:24:30.963Z,1.45
2022-08-10T01:27:16.941Z,1.20
2022-08-10T01:30:02.985Z,1.38
2022-08-10T01:32:38.739Z,1.30
2022-08-10T01:35:15.032Z,1.45
2022-08-10T01:37:52.418Z,1.33
2022-08-10T01:40:25.937Z,1.30
2022-08-10T01:42:59.638Z,1.50
2022-08-10T01:45:44.512Z,1.38
2022-08-10T01:48:31.529Z,1.40
2022-08-10T01:51:18.213Z,1.45
2022-08-10T01:53:53.132Z,1.48
2022-08-10T01:56:23.628Z,1.30
2022-08-10T01:58:56.905Z,1.35
2022-08-10T02:01:30.731Z,1.40
2022-08-10T02:04:06.137Z,1.50
2022-08-10T02:06:39.761Z,1.25
2022-08-10T02:09:10.114Z,1.58
2022-08-10T02:12:05.672Z,1.60
2022-08-10T02:14:33.568Z,1.50
2022-08-10T02:17:09.427Z,1.58
2022-08-10T02:20:03.706Z,1.48
2022-08-10T02:22:37.920Z,1.65
2022-08-10T02:25:09.813Z,1.30
2022-08-10T02:28:00.043Z,1.40
2022-08-10T02:30:30.367Z,1.50
2022-08-10T02:33:01.606Z,1.60
2022-08-10T02:35:54.448Z,1.58
2022-08-10T02:38:59.421Z,1.50
2022-08-10T02:45:14.973Z,1.45
2022-08-10T02:45:27.813Z,1.50
2022-08-10T02:47:04.376Z,1.42
2022-08-10T02:49:40.058Z,1.50
2022-08-10T02:52:13.171Z,1.52
2022-08-10T02:54:50.717Z,1.50
2022-08-10T02:57:24.071Z,1.50
2022-08-10T02:59:55.554Z,1.58
2022-08-10T03:02:27.891Z,1.67
2022-08-10T03:05:04.699Z,1.50
2022-08-10T03:07:43.907Z,1.35
2022-08-10T03:10:16.796Z,1.58
2022-08-10T03:12:47.262Z,1.50
2022-08-10T03:15:17.019Z,1.50
2022-08-10T03:17:57.755Z,1.50
2022-08-10T03:20:36.611Z,1.55
2022-08-10T03:23:11.977Z,1.58
2022-08-10T03:25:41.514Z,1.42
2022-08-10T03:28:23.999Z,1.50
2022-08-10T03:30:53.273Z,1.65
2022-08-10T03:33:22.966Z,1.40
2022-08-10T03:36:42.974Z,1.40
2022-08-10T03:38:46.230Z,1.58
2022-08-10T03:41:16.719Z,1.60
2022-08-10T03:43:48.112Z,1.45
2022-08-10T03:46:20.323Z,1.67
2022-08-10T03:48:52.630Z,1.65
2022-08-10T03:51:24.630Z,1.50
2022-08-10T03:54:05.218Z,1.45
2022-08-10T03:56:41.203Z,1.50
2022-08-10T03:59:12.203Z,1.67
2022-08-10T04:02:41.696Z,1.70
2022-08-10T04:04:30.506Z,1.60
2022-08-10T04:07:01.611Z,1.60
2022-08-10T04:09:53.190Z,1.45
2022-08-10T04:12:20.468Z,1.70
2022-08-10T04:14:52.348Z,1.90
2022-08-10T04:17:57.529Z,1.65
2022-08-10T04:20:20.537Z,1.40
2022-08-10T04:22:53.422Z,1.90
2022-08-10T04:25:23.908Z,1.70
2022-08-10T04:27:53.704Z,1.40
2022-08-10T04:30:22.387Z,1.67
2022-08-10T04:32:55.607Z,1.70
2022-08-10T04:35:25.591Z,1.58
2022-08-10T04:37:59.393Z,1.63
2022-08-10T04:40:30.114Z,1.75
2022-08-10T04:43:11.766Z,1.45
2022-08-10T04:45:49.167Z,1.88
2022-08-10T04:48:42.425Z,1.70
2022-08-10T04:51:16.936Z,1.35
2022-08-10T04:54:04.080Z,1.70
2022-08-10T04:56:36.021Z,1.98
2022-08-10T04:59:05.938Z,1.70
2022-08-10T05:02:21.535Z,1.80
2022-08-10T05:04:34.790Z,1.70
2022-08-10T05:07:09.508Z,1.67
2022-08-10T05:10:02.434Z,1.80
2022-08-10T05:12:30.932Z,1.70
2022-08-10T05:14:59.748Z,2.00
2022-08-10T05:17:28.306Z,1.95
2022-08-10T05:20:04.988Z,1.80
2022-08-10T05:22:37.118Z,1.80
2022-08-10T05:25:09.600Z,1.73
2022-08-10T05:27:38.879Z,2.00
2022-08-10T05:30:09.803Z,1.80
2022-08-10T05:32:58.203Z,2.00
2022-08-10T05:35:56.547Z,1.65
2022-08-10T05:38:19.926Z,2.00
2022-08-10T05:40:51.926Z,1.88
2022-08-10T05:43:22.601Z,1.92
2022-08-10T05:46:19.567Z,2.00
2022-08-10T05:48:59.012Z,1.80
2022-08-10T05:51:29.886Z,1.90
2022-08-10T05:54:04.624Z,1.77
2022-08-10T05:56:56.710Z,1.90
2022-08-10T06:00:33.269Z,1.65
2022-08-10T06:02:35.644Z,1.95
2022-08-10T06:05:10.137Z,1.77
2022-08-10T06:07:42.796Z,1.90
2022-08-10T06:10:32.010Z,1.63
2022-08-10T06:13:30.193Z,2.00
2022-08-10T06:16:06.859Z,1.83
2022-08-10T06:18:37.107Z,1.92
2022-08-10T06:21:06.427Z,1.90
2022-08-10T06:23:36.214Z,2.03
2022-08-10T06:26:11.977Z,2.00
2022-08-10T06:28:58.227Z,1.60
2022-08-10T06:31:48.209Z,2.20
2022-08-10T06:34:22.422Z,1.80
2022-08-10T06:36:53.259Z,1.98
2022-08-10T06:39:33.690Z,1.90
2022-08-10T06:42:16.871Z,1.67
2022-08-10T06:44:57.073Z,1.77
2022-08-10T06:47:30.697Z,1.63
2022-08-10T06:50:08.659Z,1.65
2022-08-10T06:52:39.490Z,1.63
2022-08-10T06:55:12.444Z,1.58
2022-08-10T06:57:59.622Z,1.70
2022-08-10T07:00:34.695Z,2.13
2022-08-10T07:03:09.209Z,1.90
2022-08-10T07:05:40.778Z,1.85
2022-08-10T07:08:12.431Z,1.90
2022-08-10T07:10:45.886Z,1.65
2022-08-10T07:14:14.021Z,1.88
2022-08-10T07:16:12.353Z,1.80
2022-08-10T07:18:43.434Z,1.70
2022-08-10T07:21:14.047Z,1.83
2022-08-10T07:23:58.698Z,1.88
2022-08-10T07:26:30.850Z,1.73
2022-08-10T07:29:00.638Z,1.70
2022-08-10T07:31:54.763Z,1.70
2022-08-10T07:34:29.114Z,2.00
2022-08-10T07:37:02.428Z,1.80
2022-08-10T07:40:01.815Z,1.75
2022-08-10T07:42:23.920Z,1.70
2022-08-10T07:44:53.858Z,2.08
2022-08-10T07:47:53.014Z,2.00
2022-08-10T07:50:25.160Z,1.98
2022-08-10T07:52:56.120Z,1.90
2022-08-10T07:56:03.554Z,1.75
2022-08-10T07:58:17.496Z,1.70
2022-08-10T08:00:47.977Z,1.65
2022-08-10T08:03:22.465Z,1.80
2022-08-10T08:06:02.382Z,1.70
2022-08-10T08:08:34.821Z,1.95
2022-08-10T08:11:07.108Z,1.63
2022-08-10T08:13:36.583Z,1.85
2022-08-10T08:16:18.687Z,2.00
2022-08-10T08:19:23.616Z,2.22
2022-08-10T08:24:06.838Z,1.92
2022-08-10T08:24:36.239Z,2.10
2022-08-10T08:27:06.627Z,1.80
2022-08-10T08:29:38.598Z,1.90
2022-08-10T08:32:08.036Z,1.90
2022-08-10T08:34:39.907Z,2.58
2022-08-10T08:37:11.532Z,2.40
2022-08-10T08:39:41.679Z,3.00
2022-08-10T08:42:28.885Z,2.53
2022-08-10T08:45:10.071Z,2.80
2022-08-10T08:48:05.180Z,2.35
2022-08-10T08:50:55.250Z,2.10
2022-08-10T08:54:02.934Z,2.38
2022-08-10T08:56:38.847Z,2.30
2022-08-10T08:59:23.842Z,2.25
2022-08-10T09:02:04.207Z,2.10
2022-08-10T09:04:52.706Z,2.97
2022-08-10T09:08:00.671Z,2.35
2022-08-10T09:10:44.598Z,2.30
2022-08-10T09:13:26.773Z,2.10
2022-08-10T09:16:07.102Z,1.70
2022-08-10T09:18:46.781Z,2.03
2022-08-10T09:21:20.877Z,1.70
2022-08-10T09:24:02.257Z,1.75
2022-08-10T09:26:43.951Z,1.80
2022-08-10T09:29:17.048Z,1.85
2022-08-10T09:31:55.854Z,1.42
2022-08-10T09:36:24.606Z,1.70
2022-08-10T09:38:01.374Z,1.70
2022-08-10T09:41:03.096Z,2.10
2022-08-10T09:43:45.095Z,1.77
2022-08-10T09:46:27.136Z,1.67
2022-08-10T09:49:05.389Z,1.77
2022-08-10T09:51:47.026Z,1.88
2022-08-10T09:54:29.857Z,2.20
2022-08-10T09:57:44.876Z,1.80
2022-08-10T10:00:09.254Z,1.90
2022-08-10T10:02:50.871Z,1.88
2022-08-10T10:05:31.064Z,1.85
2022-08-10T10:08:08.693Z,1.70
2022-08-10T10:10:47.806Z,1.50
2022-08-10T10:14:01.791Z,1.90
2022-08-10T10:16:53.486Z,1.80
2022-08-10T10:19:50.529Z,1.40
2022-08-10T10:22:44.808Z,1.65
2022-08-10T10:25:24.046Z,1.70
2022-08-10T10:28:38.991Z,2.45
2022-08-10T10:31:25.854Z,2.40
2022-08-10T10:34:05.183Z,2.30
2022-08-10T10:36:35.555Z,1.88
2022-08-10T10:39:04.671Z,1.73
2022-08-10T10:42:03.624Z,2.00
2022-08-10T10:44:43.047Z,1.90
2022-08-10T10:47:34.817Z,1.90
2022-08-10T10:50:13.020Z,1.88
2022-08-10T10:52:51.071Z,1.95
2022-08-10T10:55:27.079Z,1.67
2022-08-10T10:58:02.774Z,1.75
2022-08-10T11:00:40.410Z,1.90
2022-08-10T11:03:34.991Z,2.00
2022-08-10T11:06:15.791Z,1.67
2022-08-10T11:08:52.384Z,1.70
2022-08-10T11:12:01.183Z,1.75
2022-08-10T11:14:29.226Z,2.00
2022-08-10T11:17:05.931Z,4.18
2022-08-10T11:20:01.575Z,26.33
2022-08-10T11:22:37.783Z,10.73
2022-08-10T11:25:13.017Z,8.88
2022-08-10T11:27:49.141Z,28.05
2022-08-10T11:30:21.595Z,11.32
2022-08-10T11:33:12.340Z,6.28
2022-08-10T11:35:48.470Z,6.60
2022-08-10T11:38:32.309Z,12.15
2022-08-10T11:42:05.411Z,9.43
2022-08-10T11:44:09.525Z,4.50
2022-08-10T11:46:42.906Z,3.20
2022-08-10T11:49:19.017Z,2.00
2022-08-10T11:51:51.398Z,1.98
2022-08-10T11:54:27.209Z,1.80
2022-08-10T11:57:02.220Z,1.52
2022-08-10T11:59:58.396Z,1.65
2022-08-10T12:02:32.759Z,1.77
2022-08-10T12:05:07.605Z,1.63
2022-08-10T12:10:01.949Z,1.70
2022-08-10T12:10:27.258Z,1.63
2022-08-10T12:13:03.475Z,1.85
2022-08-10T12:15:36.948Z,1.50
2022-08-10T12:18:13.877Z,1.55
2022-08-10T12:20:48.133Z,1.45
2022-08-10T12:23:23.504Z,1.40
2022-08-10T12:25:59.505Z,1.50
2022-08-10T12:28:49.786Z,1.60
2022-08-10T12:31:24.534Z,1.40
2022-08-10T12:34:04.808Z,1.42
2022-08-10T12:36:42.251Z,1.30
2022-08-10T12:39:17.016Z,1.63
2022-08-10T12:41:52.648Z,1.30
2022-08-10T12:44:41.274Z,1.50
2022-08-10T12:47:20.183Z,1.40
2022-08-10T12:50:31.280Z,1.25
2022-08-10T12:52:56.537Z,1.83
2022-08-10T12:55:27.538Z,1.50
2022-08-10T12:57:58.654Z,1.65
2022-08-10T13:00:32.949Z,1.35
2022-08-10T13:03:02.725Z,1.67
2022-08-10T13:05:54.698Z,1.50
2022-08-10T13:08:43.518Z,1.50
2022-08-10T13:12:33.723Z,1.40
2022-08-10T13:14:11.164Z,1.40
2022-08-10T13:16:40.942Z,1.38
2022-08-10T13:19:11.410Z,1.48
2022-08-10T13:21:41.256Z,1.50
2022-08-10T13:24:14.242Z,1.40
2022-08-10T13:27:21.562Z,1.50
2022-08-10T13:29:40.725Z,1.48
2022-08-10T13:32:11.246Z,1.55
2022-08-10T13:34:45.418Z,1.90
2022-08-10T13:37:18.210Z,1.45
2022-08-10T13:39:59.869Z,1.50
2022-08-10T13:42:31.900Z,1.52
2022-08-10T13:45:10.611Z,1.27
2022-08-10T13:47:48.920Z,1.30
2022-08-10T13:50:33.421Z,1.58
2022-08-10T13:53:10.000Z,1.30
2022-08-10T13:55:55.248Z,1.60
2022-08-10T13:58:27.495Z,1.60
2022-08-10T14:00:57.262Z,1.70
2022-08-10T14:03:27.132Z,1.60
2022-08-10T14:05:59.245Z,1.40
2022-08-10T14:08:32.442Z,1.52
2022-08-10T14:11:11.029Z,1.63
2022-08-10T14:13:45.595Z,1.65
2022-08-10T14:16:14.883Z,2.17
2022-08-10T14:18:46.012Z,2.72
2022-08-10T14:21:15.504Z,2.58
2022-08-10T14:23:52.337Z,2.47
2022-08-10T14:26:26.313Z,3.10
2022-08-10T14:28:58.308Z,3.35
2022-08-10T14:31:33.761Z,3.50
2022-08-10T14:34:05.683Z,3.40
2022-08-10T14:36:43.412Z,3.70
2022-08-10T14:39:20.765Z,3.85
2022-08-10T14:42:03.001Z,3.90
2022-08-10T14:44:46.453Z,4.68
2022-08-10T14:47:52.653Z,4.93
2022-08-10T14:50:07.732Z,4.68
2022-08-10T14:52:44.331Z,5.15
2022-08-10T14:55:19.102Z,6.50
2022-08-10T14:58:20.026Z,7.60
2022-08-10T15:00:43.014Z,7.40
2022-08-10T15:04:01.317Z,7.57
2022-08-10T15:06:18.321Z,8.93
2022-08-10T15:08:48.036Z,9.13
2022-08-10T15:12:13.199Z,9.90
2022-08-10T15:14:25.946Z,8.60
2022-08-10T15:16:58.781Z,9.10
2022-08-10T15:20:03.773Z,9.93
2022-08-10T15:22:37.158Z,9.27
2022-08-10T15:25:18.022Z,9.73
2022-08-10T15:27:53.954Z,10.05
2022-08-10T15:30:29.872Z,9.55
2022-08-10T15:33:21.460Z,10.30
2022-08-10T15:36:25.279Z,10.77
2022-08-10T15:39:01.403Z,10.60
2022-08-10T15:41:58.761Z,9.82
2022-08-10T15:44:38.471Z,10.85
2022-08-10T15:47:12.193Z,10.80
2022-08-10T15:49:50.430Z,11.30
2022-08-10T15:52:59.998Z,10.27
2022-08-10T15:55:41.152Z,10.52
2022-08-10T15:58:08.868Z,10.02
2022-08-10T16:00:45.508Z,9.38
2022-08-10T16:03:25.957Z,8.80
2022-08-10T16:06:01.532Z,8.75
2022-08-10T16:08:55.701Z,8.00
2022-08-10T16:11:38.130Z,8.07
2022-08-10T16:14:19.614Z,7.53
2022-08-10T16:16:57.077Z,7.40
2022-08-10T16:19:29.659Z,7.45
2022-08-10T16:22:01.213Z,7.97
2022-08-10T16:24:35.510Z,7.40
2022-08-10T16:27:07.644Z,6.95
2022-08-10T16:29:55.846Z,6.80
2022-08-10T16:32:25.606Z,5.68
2022-08-10T16:34:57.515Z,5.13
2022-08-10T16:37:58.275Z,5.45
2022-08-10T16:40:24.909Z,4.55
2022-08-10T16:42:54.616Z,4.13
2022-08-10T16:45:31.266Z,4.18
2022-08-10T16:48:00.600Z,3.78
2022-08-10T16:50:33.494Z,3.95
2022-08-10T16:53:03.555Z,3.30
2022-08-10T16:55:48.814Z,3.33
2022-08-10T16:58:25.487Z,2.92
2022-08-10T17:00:54.959Z,2.60
2022-08-10T17:04:08.303Z,2.35
2022-08-10T17:06:24.843Z,2.58
2022-08-10T17:08:55.633Z,2.40
2022-08-10T17:11:29.019Z,2.35
2022-08-10T17:13:59.235Z,4.00
2022-08-10T17:16:34.508Z,2.72
2022-08-10T17:19:04.762Z,4.63
2022-08-10T17:21:51.011Z,3.17
2022-08-10T17:24:24.307Z,2.80
2022-08-10T17:26:53.075Z,2.40
2022-08-10T17:29:58.142Z,2.20
2022-08-10T17:32:21.773Z,1.40
2022-08-10T17:34:57.278Z,1.77
2022-08-10T17:37:31.687Z,1.65
2022-08-10T17:40:03.525Z,1.60
2022-08-10T17:42:32.988Z,1.55
2022-08-10T17:45:01.822Z,1.65
2022-08-10T17:47:30.628Z,1.42
2022-08-10T17:50:00.863Z,1.30
2022-08-10T17:52:33.754Z,1.77
2022-08-10T17:55:05.234Z,1.40
2022-08-10T17:57:37.941Z,1.40
2022-08-10T18:00:10.278Z,1.50
2022-08-10T18:02:42.121Z,1.90
2022-08-10T18:05:12.963Z,2.80
2022-08-10T18:07:49.498Z,2.47
2022-08-10T18:10:21.059Z,1.98
2022-08-10T18:12:53.126Z,1.73
2022-08-10T18:15:27.106Z,1.50
2022-08-10T18:17:59.495Z,1.77
2022-08-10T18:20:36.277Z,1.80
2022-08-10T18:23:08.298Z,1.30
2022-08-10T18:25:40.085Z,1.65
2022-08-10T18:28:12.044Z,1.52
2022-08-10T18:30:48.240Z,1.58
2022-08-10T18:33:20.199Z,1.60
2022-08-10T18:35:50.946Z,1.50
2022-08-10T18:38:22.887Z,1.52
2022-08-10T18:40:56.500Z,1.33
2022-08-10T18:44:07.362Z,1.73
2022-08-10T18:46:29.605Z,1.60
2022-08-10T18:49:04.990Z,1.48
2022-08-10T18:51:46.415Z,1.40
2022-08-10T18:54:31.244Z,1.25
2022-08-10T18:57:17.823Z,1.35
2022-08-10T19:00:07.581Z,1.30
2022-08-10T19:03:00.951Z,1.30
2022-08-10T19:05:48.382Z,1.15
2022-08-10T19:08:36.465Z,1.13
2022-08-10T19:11:31.399Z,1.30
2022-08-10T19:14:06.130Z,1.10
2022-08-10T19:16:41.944Z,1.10
2022-08-10T19:19:30.793Z,1.40
2022-08-10T19:22:14.820Z,1.25
2022-08-10T19:24:55.108Z,1.48
2022-08-10T19:27:38.176Z,1.42
2022-08-10T19:30:12.918Z,1.02
2022-08-10T19:33:07.699Z,1.23
2022-08-10T19:36:04.428Z,1.30
2022-08-10T19:38:45.521Z,1.00
2022-08-10T19:41:32.078Z,1.20
2022-08-10T19:44:11.102Z,1.35
2022-08-10T19:46:43.726Z,1.30
2022-08-10T19:49:20.079Z,1.00
2022-08-10T19:51:55.602Z,1.33
2022-08-10T19:54:34.057Z,1.30
2022-08-10T19:57:12.471Z,1.38
2022-08-10T20:00:14.972Z,1.20
2022-08-10T20:02:47.468Z,1.23
2022-08-10T20:05:30.233Z,1.27
2022-08-10T20:08:06.727Z,1.30
2022-08-10T20:10:44.420Z,1.08
2022-08-10T20:13:22.350Z,1.20
2022-08-10T20:16:00.122Z,1.20
2022-08-10T20:18:34.207Z,1.10
2022-08-10T20:21:12.984Z,1.33
2022-08-10T20:23:55.689Z,1.25
2022-08-10T20:26:26.158Z,1.20
2022-08-10T20:29:08.146Z,1.25
2022-08-10T20:31:42.541Z,1.20
2022-08-10T20:34:20.573Z,1.25
2022-08-10T20:36:59.220Z,1.25
2022-08-10T20:39:40.029Z,1.05
2022-08-10T20:42:13.251Z,1.40
2022-08-10T20:44:53.804Z,1.10
2022-08-10T20:47:42.559Z,1.15
2022-08-10T20:50:30.873Z,1.13
2022-08-10T20:53:06.187Z,0.98
2022-08-10T20:55:53.530Z,1.30
2022-08-10T20:58:35.380Z,1.30
2022-08-10T21:01:16.925Z,1.10
2022-08-10T21:04:04.031Z,1.10
2022-08-10T21:07:05.689Z,1.17
2022-08-10T21:09:50.376Z,1.00
2022-08-10T21:12:51.658Z,1.20
2022-08-10T21:15:29.501Z,1.10
2022-08-10T21:18:20.952Z,0.80
2022-08-10T21:20:59.559Z,1.10
2022-08-10T21:23:31.318Z,1.10
2022-08-10T21:26:10.479Z,0.90
2022-08-10T21:28:53.121Z,1.00
2022-08-10T21:31:37.247Z,1.10
2022-08-10T21:34:32.129Z,1.08
2022-08-10T21:37:17.966Z,1.10
2022-08-10T21:40:04.977Z,1.05
2022-08-10T21:43:20.559Z,1.10
2022-08-10T21:46:16.063Z,0.98
2022-08-10T21:49:17.644Z,1.00
2022-08-10T21:52:17.809Z,1.10
2022-08-10T21:55:14.311Z,1.08
2022-08-10T21:58:08.015Z,1.20
2022-08-10T22:00:57.410Z,1.00
2022-08-10T22:03:44.020Z,1.23
2022-08-10T22:06:32.700Z,1.00
2022-08-10T22:09:24.154Z,1.20
2022-08-10T22:12:30.963Z,1.33
2022-08-10T22:15:24.162Z,1.20
2022-08-10T22:18:31.702Z,1.10
2022-08-10T22:21:27.133Z,1.13
2022-08-10T22:24:28.178Z,1.00
2022-08-10T22:27:56.541Z,1.23
2022-08-10T22:30:57.867Z,1.20
2022-08-10T22:34:01.542Z,1.15
2022-08-10T22:37:06.776Z,1.00
2022-08-10T22:40:13.816Z,1.00
2022-08-10T22:43:10.769Z,1.20
2022-08-10T22:46:03.518Z,1.05
2022-08-10T22:48:51.708Z,1.00
2022-08-10T22:51:24.595Z,1.00
2022-08-10T22:54:31.233Z,1.00
2022-08-10T22:57:19.094Z,1.10
2022-08-10T22:59:50.434Z,1.00
2022-08-10T23:02:31.282Z,1.15
2022-08-10T23:05:08.136Z,1.20
2022-08-10T23:07:46.533Z,1.10
2022-08-10T23:10:17.063Z,1.00
2022-08-10T23:12:49.977Z,1.00
2022-08-10T23:15:41.533Z,1.10
2022-08-10T23:18:32.888Z,1.10
2022-08-10T23:21:02.682Z,1.00
2022-08-10T23:23:37.815Z,1.17
2022-08-10T23:26:08.302Z,1.00
2022-08-10T23:28:58.269Z,1.10
2022-08-10T23:32:01.265Z,0.90
2022-08-10T23:34:26.460Z,1.20
2022-08-10T23:36:57.448Z,1.23
2022-08-10T23:39:33.593Z,1.10
2022-08-10T23:42:07.678Z,1.13
2022-08-10T23:44:44.232Z,1.00
2022-08-10T23:47:17.311Z,1.10
2022-08-10T23:49:47.547Z,1.20
2022-08-10T23:52:18.531Z,1.20
2022-08-10T23:54:50.607Z,1.20
2022-08-10T23:57:21.570Z,0.88
2022-08-10T23:59:56.960Z,1.10
